sensor_id;sensor_type;location;lat;lon;timestamp;P1;durP1;ratioP1;P2;durP2;ratioP2
5117;SDS011;2578;51.622;7.046;2024-03-17T00:01:10;77.67;;;12.80;;
5117;SDS011;2578;51.622;7.046;2024-03-17T00:03:36;77.83;;;12.60;;
5117;SDS011;2578;51.622;7.046;2024-03-17T00:06:02;78.20;;;12.90;;
5117;SDS011;2578;51.622;7.046;2024-03-17T00:08:29;79.53;;;14.20;;
5117;SDS011;2578;51.622;7.046;2024-03-17T00:10:55;80.07;;;14.53;;
5117;SDS011;2578;51.622;7.046;2024-03-17T00:13:21;79.00;;;13.50;;
5117;SDS011;2578;51.622;7.046;2024-03-17T00:15:50;77.90;;;12.47;;
5117;SDS011;2578;51.622;7.046;2024-03-17T00:18:16;77.90;;;11.93;;
5117;SDS011;2578;51.622;7.046;2024-03-17T00:20:43;78.40;;;12.60;;
5117;SDS011;2578;51.622;7.046;2024-03-17T00:23:09;77.80;;;11.80;;
5117;SDS011;2578;51.622;7.046;2024-03-17T00:25:37;77.73;;;11.50;;
5117;SDS011;2578;51.622;7.046;2024-03-17T00:28:03;77.80;;;11.80;;
5117;SDS011;2578;51.622;7.046;2024-03-17T00:30:29;77.90;;;11.90;;
5117;SDS011;2578;51.622;7.046;2024-03-17T00:32:56;78.10;;;12.07;;
5117;SDS011;2578;51.622;7.046;2024-03-17T00:35:23;78.50;;;12.97;;
5117;SDS011;2578;51.622;7.046;2024-03-17T00:37:50;85.00;;;15.43;;
5117;SDS011;2578;51.622;7.046;2024-03-17T00:40:16;78.20;;;12.60;;
5117;SDS011;2578;51.622;7.046;2024-03-17T00:42:43;78.10;;;12.87;;
5117;SDS011;2578;51.622;7.046;2024-03-17T00:45:12;78.70;;;13.00;;
5117;SDS011;2578;51.622;7.046;2024-03-17T00:47:38;78.30;;;13.10;;
5117;SDS011;2578;51.622;7.046;2024-03-17T00:50:05;78.53;;;13.10;;
5117;SDS011;2578;51.622;7.046;2024-03-17T00:52:36;78.93;;;13.50;;
5117;SDS011;2578;51.622;7.046;2024-03-17T00:55:02;78.50;;;13.90;;
5117;SDS011;2578;51.622;7.046;2024-03-17T00:57:28;78.50;;;13.03;;
5117;SDS011;2578;51.622;7.046;2024-03-17T00:59:54;78.63;;;13.90;;
5117;SDS011;2578;51.622;7.046;2024-03-17T01:02:21;78.70;;;14.00;;
5117;SDS011;2578;51.622;7.046;2024-03-17T01:04:47;78.97;;;14.10;;
5117;SDS011;2578;51.622;7.046;2024-03-17T01:07:13;79.27;;;14.40;;
5117;SDS011;2578;51.622;7.046;2024-03-17T01:09:39;79.77;;;15.07;;
5117;SDS011;2578;51.622;7.046;2024-03-17T01:12:05;78.53;;;14.37;;
5117;SDS011;2578;51.622;7.046;2024-03-17T01:14:31;78.90;;;14.00;;
5117;SDS011;2578;51.622;7.046;2024-03-17T01:16:58;79.03;;;14.20;;
5117;SDS011;2578;51.622;7.046;2024-03-17T01:19:24;84.17;;;16.43;;
5117;SDS011;2578;51.622;7.046;2024-03-17T01:21:51;78.77;;;13.97;;
5117;SDS011;2578;51.622;7.046;2024-03-17T01:24:17;77.90;;;13.70;;
5117;SDS011;2578;51.622;7.046;2024-03-17T01:26:44;78.73;;;14.10;;
5117;SDS011;2578;51.622;7.046;2024-03-17T01:29:10;77.87;;;14.10;;
5117;SDS011;2578;51.622;7.046;2024-03-17T01:31:36;77.97;;;13.83;;
5117;SDS011;2578;51.622;7.046;2024-03-17T01:34:02;77.90;;;14.00;;
5117;SDS011;2578;51.622;7.046;2024-03-17T01:36:28;78.17;;;13.67;;
5117;SDS011;2578;51.622;7.046;2024-03-17T01:38:54;77.77;;;13.70;;
5117;SDS011;2578;51.622;7.046;2024-03-17T01:41:20;78.17;;;14.00;;
5117;SDS011;2578;51.622;7.046;2024-03-17T01:43:46;77.43;;;13.80;;
5117;SDS011;2578;51.622;7.046;2024-03-17T01:46:13;77.87;;;13.90;;
5117;SDS011;2578;51.622;7.046;2024-03-17T01:48:39;76.57;;;13.50;;
5117;SDS011;2578;51.622;7.046;2024-03-17T01:51:05;77.47;;;13.50;;
5117;SDS011;2578;51.622;7.046;2024-03-17T01:53:33;76.83;;;13.20;;
5117;SDS011;2578;51.622;7.046;2024-03-17T01:55:59;76.90;;;13.33;;
5117;SDS011;2578;51.622;7.046;2024-03-17T01:58:25;78.33;;;15.10;;
5117;SDS011;2578;51.622;7.046;2024-03-17T02:00:53;79.47;;;14.80;;
5117;SDS011;2578;51.622;7.046;2024-03-17T02:03:19;76.27;;;13.30;;
5117;SDS011;2578;51.622;7.046;2024-03-17T02:05:45;76.40;;;13.00;;
5117;SDS011;2578;51.622;7.046;2024-03-17T02:08:11;75.70;;;12.07;;
5117;SDS011;2578;51.622;7.046;2024-03-17T02:10:37;76.40;;;14.10;;
5117;SDS011;2578;51.622;7.046;2024-03-17T02:13:03;75.60;;;12.10;;
5117;SDS011;2578;51.622;7.046;2024-03-17T02:15:30;75.40;;;11.97;;
5117;SDS011;2578;51.622;7.046;2024-03-17T02:17:56;79.80;;;13.00;;
5117;SDS011;2578;51.622;7.046;2024-03-17T02:20:22;74.87;;;12.00;;
5117;SDS011;2578;51.622;7.046;2024-03-17T02:23:07;74.37;;;11.90;;
5117;SDS011;2578;51.622;7.046;2024-03-17T02:25:33;74.10;;;11.80;;
5117;SDS011;2578;51.622;7.046;2024-03-17T02:28:00;75.07;;;12.30;;
5117;SDS011;2578;51.622;7.046;2024-03-17T02:30:26;74.33;;;11.40;;
5117;SDS011;2578;51.622;7.046;2024-03-17T02:32:52;74.43;;;11.60;;
5117;SDS011;2578;51.622;7.046;2024-03-17T02:35:18;74.97;;;11.80;;
5117;SDS011;2578;51.622;7.046;2024-03-17T02:37:44;74.73;;;11.60;;
5117;SDS011;2578;51.622;7.046;2024-03-17T02:40:10;74.13;;;11.40;;
5117;SDS011;2578;51.622;7.046;2024-03-17T02:42:36;74.40;;;11.20;;
5117;SDS011;2578;51.622;7.046;2024-03-17T02:45:10;74.60;;;11.47;;
5117;SDS011;2578;51.622;7.046;2024-03-17T02:47:37;74.17;;;11.37;;
5117;SDS011;2578;51.622;7.046;2024-03-17T02:50:03;73.37;;;11.53;;
5117;SDS011;2578;51.622;7.046;2024-03-17T02:52:29;74.37;;;12.03;;
5117;SDS011;2578;51.622;7.046;2024-03-17T02:54:55;73.20;;;11.70;;
5117;SDS011;2578;51.622;7.046;2024-03-17T02:57:22;73.30;;;11.03;;
5117;SDS011;2578;51.622;7.046;2024-03-17T02:59:54;73.47;;;10.77;;
5117;SDS011;2578;51.622;7.046;2024-03-17T03:02:20;73.20;;;10.23;;
5117;SDS011;2578;51.622;7.046;2024-03-17T03:04:46;73.27;;;10.87;;
5117;SDS011;2578;51.622;7.046;2024-03-17T03:07:12;74.90;;;14.13;;
5117;SDS011;2578;51.622;7.046;2024-03-17T03:09:38;73.57;;;11.67;;
5117;SDS011;2578;51.622;7.046;2024-03-17T03:12:04;73.70;;;11.60;;
5117;SDS011;2578;51.622;7.046;2024-03-17T03:14:32;73.40;;;10.90;;
5117;SDS011;2578;51.622;7.046;2024-03-17T03:16:58;73.57;;;10.83;;
5117;SDS011;2578;51.622;7.046;2024-03-17T03:19:25;72.90;;;10.63;;
5117;SDS011;2578;51.622;7.046;2024-03-17T03:21:51;73.77;;;11.50;;
5117;SDS011;2578;51.622;7.046;2024-03-17T03:24:17;73.77;;;10.80;;
5117;SDS011;2578;51.622;7.046;2024-03-17T03:26:43;73.60;;;11.90;;
5117;SDS011;2578;51.622;7.046;2024-03-17T03:29:10;77.40;;;12.90;;
5117;SDS011;2578;51.622;7.046;2024-03-17T03:31:36;74.17;;;12.20;;
5117;SDS011;2578;51.622;7.046;2024-03-17T03:34:05;74.70;;;12.50;;
5117;SDS011;2578;51.622;7.046;2024-03-17T03:36:33;74.07;;;11.20;;
5117;SDS011;2578;51.622;7.046;2024-03-17T03:38:59;73.67;;;11.47;;
5117;SDS011;2578;51.622;7.046;2024-03-17T03:41:25;73.67;;;11.00;;
5117;SDS011;2578;51.622;7.046;2024-03-17T03:43:51;73.93;;;10.97;;
5117;SDS011;2578;51.622;7.046;2024-03-17T03:46:18;73.60;;;10.47;;
5117;SDS011;2578;51.622;7.046;2024-03-17T03:48:44;74.07;;;10.83;;
5117;SDS011;2578;51.622;7.046;2024-03-17T03:51:10;75.83;;;10.90;;
5117;SDS011;2578;51.622;7.046;2024-03-17T03:53:36;77.70;;;11.50;;
5117;SDS011;2578;51.622;7.046;2024-03-17T03:56:03;74.00;;;10.83;;
5117;SDS011;2578;51.622;7.046;2024-03-17T03:58:33;74.10;;;11.63;;
5117;SDS011;2578;51.622;7.046;2024-03-17T04:01:06;75.27;;;12.27;;
5117;SDS011;2578;51.622;7.046;2024-03-17T04:03:33;76.00;;;12.63;;
5117;SDS011;2578;51.622;7.046;2024-03-17T04:06:05;77.27;;;14.30;;
5117;SDS011;2578;51.622;7.046;2024-03-17T04:08:35;77.40;;;13.03;;
5117;SDS011;2578;51.622;7.046;2024-03-17T04:11:01;76.27;;;12.07;;
5117;SDS011;2578;51.622;7.046;2024-03-17T04:13:28;76.17;;;11.80;;
5117;SDS011;2578;51.622;7.046;2024-03-17T04:15:54;75.80;;;11.47;;
5117;SDS011;2578;51.622;7.046;2024-03-17T04:18:22;75.90;;;11.73;;
5117;SDS011;2578;51.622;7.046;2024-03-17T04:20:49;76.10;;;11.80;;
5117;SDS011;2578;51.622;7.046;2024-03-17T04:23:16;77.00;;;12.43;;
5117;SDS011;2578;51.622;7.046;2024-03-17T04:25:42;78.70;;;12.80;;
5117;SDS011;2578;51.622;7.046;2024-03-17T04:28:08;76.80;;;11.50;;
5117;SDS011;2578;51.622;7.046;2024-03-17T04:30:34;75.90;;;11.07;;
5117;SDS011;2578;51.622;7.046;2024-03-17T04:33:00;76.47;;;11.67;;
5117;SDS011;2578;51.622;7.046;2024-03-17T04:35:28;75.70;;;10.73;;
5117;SDS011;2578;51.622;7.046;2024-03-17T04:37:54;75.27;;;10.63;;
5117;SDS011;2578;51.622;7.046;2024-03-17T04:40:22;76.30;;;11.70;;
5117;SDS011;2578;51.622;7.046;2024-03-17T04:42:48;76.00;;;11.23;;
5117;SDS011;2578;51.622;7.046;2024-03-17T04:45:14;75.80;;;10.83;;
5117;SDS011;2578;51.622;7.046;2024-03-17T04:47:40;75.60;;;10.87;;
5117;SDS011;2578;51.622;7.046;2024-03-17T04:50:06;76.07;;;11.10;;
5117;SDS011;2578;51.622;7.046;2024-03-17T04:52:32;76.30;;;11.20;;
5117;SDS011;2578;51.622;7.046;2024-03-17T04:54:58;76.10;;;11.10;;
5117;SDS011;2578;51.622;7.046;2024-03-17T04:57:24;76.30;;;11.43;;
5117;SDS011;2578;51.622;7.046;2024-03-17T04:59:50;76.40;;;11.97;;
5117;SDS011;2578;51.622;7.046;2024-03-17T05:02:16;75.77;;;11.57;;
5117;SDS011;2578;51.622;7.046;2024-03-17T05:04:42;77.20;;;12.60;;
5117;SDS011;2578;51.622;7.046;2024-03-17T05:07:08;76.13;;;12.17;;
5117;SDS011;2578;51.622;7.046;2024-03-17T05:09:34;76.73;;;12.83;;
5117;SDS011;2578;51.622;7.046;2024-03-17T05:12:00;76.80;;;12.47;;
5117;SDS011;2578;51.622;7.046;2024-03-17T05:14:27;79.63;;;13.03;;
5117;SDS011;2578;51.622;7.046;2024-03-17T05:16:53;76.43;;;11.80;;
5117;SDS011;2578;51.622;7.046;2024-03-17T05:19:19;76.27;;;11.33;;
5117;SDS011;2578;51.622;7.046;2024-03-17T05:21:45;76.17;;;11.07;;
5117;SDS011;2578;51.622;7.046;2024-03-17T05:24:11;76.67;;;11.90;;
5117;SDS011;2578;51.622;7.046;2024-03-17T05:26:37;75.90;;;11.97;;
5117;SDS011;2578;51.622;7.046;2024-03-17T05:29:04;76.30;;;12.60;;
5117;SDS011;2578;51.622;7.046;2024-03-17T05:31:30;76.80;;;12.30;;
5117;SDS011;2578;51.622;7.046;2024-03-17T05:33:56;76.33;;;12.00;;
5117;SDS011;2578;51.622;7.046;2024-03-17T05:36:22;76.60;;;12.13;;
5117;SDS011;2578;51.622;7.046;2024-03-17T05:38:48;76.20;;;11.70;;
5117;SDS011;2578;51.622;7.046;2024-03-17T05:41:14;75.90;;;11.67;;
5117;SDS011;2578;51.622;7.046;2024-03-17T05:43:40;76.97;;;12.27;;
5117;SDS011;2578;51.622;7.046;2024-03-17T05:46:07;75.93;;;11.80;;
5117;SDS011;2578;51.622;7.046;2024-03-17T05:48:33;76.87;;;12.77;;
5117;SDS011;2578;51.622;7.046;2024-03-17T05:51:02;76.77;;;12.50;;
5117;SDS011;2578;51.622;7.046;2024-03-17T05:53:28;77.53;;;13.43;;
5117;SDS011;2578;51.622;7.046;2024-03-17T05:55:57;76.83;;;12.83;;
5117;SDS011;2578;51.622;7.046;2024-03-17T05:58:23;76.40;;;12.50;;
5117;SDS011;2578;51.622;7.046;2024-03-17T06:00:49;76.70;;;12.43;;
5117;SDS011;2578;51.622;7.046;2024-03-17T06:03:15;76.37;;;11.90;;
5117;SDS011;2578;51.622;7.046;2024-03-17T06:05:42;76.17;;;11.70;;
5117;SDS011;2578;51.622;7.046;2024-03-17T06:08:12;75.63;;;11.50;;
5117;SDS011;2578;51.622;7.046;2024-03-17T06:10:41;76.07;;;11.17;;
5117;SDS011;2578;51.622;7.046;2024-03-17T06:13:08;75.57;;;10.47;;
5117;SDS011;2578;51.622;7.046;2024-03-17T06:15:37;75.93;;;11.40;;
5117;SDS011;2578;51.622;7.046;2024-03-17T06:18:03;76.47;;;11.37;;
5117;SDS011;2578;51.622;7.046;2024-03-17T06:20:29;75.37;;;9.90;;
5117;SDS011;2578;51.622;7.046;2024-03-17T06:22:55;75.43;;;10.33;;
5117;SDS011;2578;51.622;7.046;2024-03-17T06:25:22;75.00;;;10.10;;
5117;SDS011;2578;51.622;7.046;2024-03-17T06:27:51;78.40;;;15.30;;
5117;SDS011;2578;51.622;7.046;2024-03-17T06:30:17;76.17;;;10.83;;
5117;SDS011;2578;51.622;7.046;2024-03-17T06:32:44;76.33;;;11.70;;
5117;SDS011;2578;51.622;7.046;2024-03-17T06:35:13;76.50;;;11.43;;
5117;SDS011;2578;51.622;7.046;2024-03-17T06:37:50;78.60;;;12.17;;
5117;SDS011;2578;51.622;7.046;2024-03-17T06:40:19;76.97;;;12.20;;
5117;SDS011;2578;51.622;7.046;2024-03-17T06:42:45;77.67;;;12.80;;
5117;SDS011;2578;51.622;7.046;2024-03-17T06:45:11;77.47;;;13.70;;
5117;SDS011;2578;51.622;7.046;2024-03-17T06:47:37;76.80;;;13.00;;
5117;SDS011;2578;51.622;7.046;2024-03-17T06:50:05;77.70;;;13.77;;
5117;SDS011;2578;51.622;7.046;2024-03-17T06:52:31;78.97;;;15.20;;
5117;SDS011;2578;51.622;7.046;2024-03-17T06:54:57;81.30;;;17.77;;
5117;SDS011;2578;51.622;7.046;2024-03-17T06:57:23;82.47;;;20.30;;
5117;SDS011;2578;51.622;7.046;2024-03-17T06:59:49;82.77;;;21.10;;
5117;SDS011;2578;51.622;7.046;2024-03-17T07:02:15;90.03;;;25.63;;
5117;SDS011;2578;51.622;7.046;2024-03-17T07:04:43;92.10;;;23.70;;
5117;SDS011;2578;51.622;7.046;2024-03-17T07:07:09;86.97;;;24.63;;
5117;SDS011;2578;51.622;7.046;2024-03-17T07:09:37;87.30;;;24.97;;
5117;SDS011;2578;51.622;7.046;2024-03-17T07:12:04;85.10;;;23.87;;
5117;SDS011;2578;51.622;7.046;2024-03-17T07:14:30;87.23;;;24.50;;
5117;SDS011;2578;51.622;7.046;2024-03-17T07:16:56;84.30;;;24.07;;
5117;SDS011;2578;51.622;7.046;2024-03-17T07:19:22;103.77;;;28.50;;
5117;SDS011;2578;51.622;7.046;2024-03-17T07:21:48;85.40;;;25.83;;
5117;SDS011;2578;51.622;7.046;2024-03-17T07:24:14;86.63;;;26.90;;
5117;SDS011;2578;51.622;7.046;2024-03-17T07:26:40;87.00;;;27.93;;
5117;SDS011;2578;51.622;7.046;2024-03-17T07:29:06;85.90;;;26.87;;
5117;SDS011;2578;51.622;7.046;2024-03-17T07:31:33;159.43;;;29.00;;
5117;SDS011;2578;51.622;7.046;2024-03-17T07:33:59;86.33;;;27.90;;
5117;SDS011;2578;51.622;7.046;2024-03-17T07:36:25;86.07;;;26.70;;
5117;SDS011;2578;51.622;7.046;2024-03-17T07:38:51;85.80;;;27.60;;
5117;SDS011;2578;51.622;7.046;2024-03-17T07:41:17;85.60;;;26.90;;
5117;SDS011;2578;51.622;7.046;2024-03-17T07:43:44;86.47;;;28.83;;
5117;SDS011;2578;51.622;7.046;2024-03-17T07:46:11;91.07;;;29.57;;
5117;SDS011;2578;51.622;7.046;2024-03-17T07:48:37;90.20;;;28.70;;
5117;SDS011;2578;51.622;7.046;2024-03-17T07:51:07;90.97;;;28.50;;
5117;SDS011;2578;51.622;7.046;2024-03-17T07:53:34;90.43;;;27.57;;
5117;SDS011;2578;51.622;7.046;2024-03-17T07:56:03;85.63;;;24.80;;
5117;SDS011;2578;51.622;7.046;2024-03-17T07:58:30;86.20;;;24.50;;
5117;SDS011;2578;51.622;7.046;2024-03-17T08:01:02;86.47;;;24.57;;
5117;SDS011;2578;51.622;7.046;2024-03-17T08:03:29;82.80;;;24.07;;
5117;SDS011;2578;51.622;7.046;2024-03-17T08:05:56;85.40;;;26.47;;
5117;SDS011;2578;51.622;7.046;2024-03-17T08:08:22;86.77;;;27.23;;
5117;SDS011;2578;51.622;7.046;2024-03-17T08:10:48;86.57;;;26.17;;
5117;SDS011;2578;51.622;7.046;2024-03-17T08:13:16;86.40;;;26.80;;
5117;SDS011;2578;51.622;7.046;2024-03-17T08:15:42;93.20;;;27.13;;
5117;SDS011;2578;51.622;7.046;2024-03-17T08:18:09;103.40;;;30.60;;
5117;SDS011;2578;51.622;7.046;2024-03-17T08:20:38;91.23;;;31.30;;
5117;SDS011;2578;51.622;7.046;2024-03-17T08:23:04;91.73;;;29.50;;
5117;SDS011;2578;51.622;7.046;2024-03-17T08:25:31;89.00;;;28.67;;
5117;SDS011;2578;51.622;7.046;2024-03-17T08:27:57;85.30;;;24.57;;
5117;SDS011;2578;51.622;7.046;2024-03-17T08:30:23;84.30;;;22.97;;
5117;SDS011;2578;51.622;7.046;2024-03-17T08:32:49;85.60;;;25.70;;
5117;SDS011;2578;51.622;7.046;2024-03-17T08:35:15;84.20;;;25.10;;
5117;SDS011;2578;51.622;7.046;2024-03-17T08:37:41;87.67;;;27.30;;
5117;SDS011;2578;51.622;7.046;2024-03-17T08:40:07;87.00;;;27.07;;
5117;SDS011;2578;51.622;7.046;2024-03-17T08:42:33;87.60;;;26.90;;
5117;SDS011;2578;51.622;7.046;2024-03-17T08:44:59;87.50;;;27.30;;
5117;SDS011;2578;51.622;7.046;2024-03-17T08:47:25;85.50;;;25.50;;
5117;SDS011;2578;51.622;7.046;2024-03-17T08:49:51;91.40;;;30.37;;
5117;SDS011;2578;51.622;7.046;2024-03-17T08:52:17;96.37;;;30.70;;
5117;SDS011;2578;51.622;7.046;2024-03-17T08:54:46;90.70;;;30.27;;
5117;SDS011;2578;51.622;7.046;2024-03-17T08:57:13;91.53;;;34.07;;
5117;SDS011;2578;51.622;7.046;2024-03-17T08:59:39;95.00;;;33.00;;
5117;SDS011;2578;51.622;7.046;2024-03-17T09:02:05;94.40;;;33.97;;
5117;SDS011;2578;51.622;7.046;2024-03-17T09:04:36;93.40;;;30.17;;
5117;SDS011;2578;51.622;7.046;2024-03-17T09:07:02;88.47;;;25.60;;
5117;SDS011;2578;51.622;7.046;2024-03-17T09:09:29;89.97;;;28.23;;
5117;SDS011;2578;51.622;7.046;2024-03-17T09:11:55;90.80;;;28.67;;
5117;SDS011;2578;51.622;7.046;2024-03-17T09:14:21;92.47;;;30.90;;
5117;SDS011;2578;51.622;7.046;2024-03-17T09:16:47;91.77;;;24.37;;
5117;SDS011;2578;51.622;7.046;2024-03-17T09:19:13;91.97;;;25.73;;
5117;SDS011;2578;51.622;7.046;2024-03-17T09:21:39;92.17;;;26.17;;
5117;SDS011;2578;51.622;7.046;2024-03-17T09:24:05;92.70;;;25.30;;
5117;SDS011;2578;51.622;7.046;2024-03-17T09:26:34;90.77;;;24.60;;
5117;SDS011;2578;51.622;7.046;2024-03-17T09:29:01;91.30;;;24.30;;
5117;SDS011;2578;51.622;7.046;2024-03-17T09:31:28;91.57;;;24.53;;
5117;SDS011;2578;51.622;7.046;2024-03-17T09:33:55;90.50;;;24.00;;
5117;SDS011;2578;51.622;7.046;2024-03-17T09:36:21;93.97;;;27.40;;
5117;SDS011;2578;51.622;7.046;2024-03-17T09:38:47;93.00;;;27.43;;
5117;SDS011;2578;51.622;7.046;2024-03-17T09:41:23;93.77;;;27.17;;
5117;SDS011;2578;51.622;7.046;2024-03-17T09:43:53;93.20;;;27.03;;
5117;SDS011;2578;51.622;7.046;2024-03-17T09:46:19;93.27;;;27.00;;
5117;SDS011;2578;51.622;7.046;2024-03-17T09:48:45;98.13;;;28.20;;
5117;SDS011;2578;51.622;7.046;2024-03-17T09:51:19;95.83;;;29.40;;
5117;SDS011;2578;51.622;7.046;2024-03-17T09:53:46;94.73;;;27.80;;
5117;SDS011;2578;51.622;7.046;2024-03-17T09:56:13;96.80;;;27.63;;
5117;SDS011;2578;51.622;7.046;2024-03-17T09:58:49;93.97;;;26.37;;
5117;SDS011;2578;51.622;7.046;2024-03-17T10:01:16;97.00;;;26.53;;
5117;SDS011;2578;51.622;7.046;2024-03-17T10:03:49;95.40;;;25.47;;
5117;SDS011;2578;51.622;7.046;2024-03-17T10:06:22;94.70;;;24.73;;
5117;SDS011;2578;51.622;7.046;2024-03-17T10:08:49;95.00;;;24.60;;
5117;SDS011;2578;51.622;7.046;2024-03-17T10:11:16;95.70;;;25.30;;
5117;SDS011;2578;51.622;7.046;2024-03-17T10:13:43;94.83;;;24.30;;
5117;SDS011;2578;51.622;7.046;2024-03-17T10:16:22;94.73;;;24.37;;
5117;SDS011;2578;51.622;7.046;2024-03-17T10:18:49;95.27;;;25.77;;
5117;SDS011;2578;51.622;7.046;2024-03-17T10:21:25;98.10;;;25.43;;
5117;SDS011;2578;51.622;7.046;2024-03-17T10:26:57;96.53;;;25.83;;
5117;SDS011;2578;51.622;7.046;2024-03-17T10:31:55;95.13;;;24.50;;
5117;SDS011;2578;51.622;7.046;2024-03-17T10:34:21;94.07;;;24.47;;
5117;SDS011;2578;51.622;7.046;2024-03-17T10:37:13;94.20;;;24.40;;
5117;SDS011;2578;51.622;7.046;2024-03-17T10:39:37;92.87;;;22.97;;
5117;SDS011;2578;51.622;7.046;2024-03-17T10:42:04;94.20;;;24.00;;
5117;SDS011;2578;51.622;7.046;2024-03-17T10:44:35;93.30;;;23.17;;
5117;SDS011;2578;51.622;7.046;2024-03-17T10:47:02;95.37;;;24.80;;
5117;SDS011;2578;51.622;7.046;2024-03-17T10:49:34;107.63;;;27.33;;
5117;SDS011;2578;51.622;7.046;2024-03-17T10:52:01;99.40;;;26.47;;
5117;SDS011;2578;51.622;7.046;2024-03-17T10:54:29;96.40;;;25.60;;
5117;SDS011;2578;51.622;7.046;2024-03-17T10:56:55;108.90;;;28.50;;
5117;SDS011;2578;51.622;7.046;2024-03-17T10:59:40;95.97;;;25.97;;
5117;SDS011;2578;51.622;7.046;2024-03-17T11:04:51;95.47;;;26.50;;
5117;SDS011;2578;51.622;7.046;2024-03-17T11:07:18;95.57;;;26.30;;
5117;SDS011;2578;51.622;7.046;2024-03-17T11:09:45;94.80;;;26.30;;
5117;SDS011;2578;51.622;7.046;2024-03-17T11:17:55;96.57;;;28.30;;
5117;SDS011;2578;51.622;7.046;2024-03-17T11:20:42;95.20;;;27.00;;
5117;SDS011;2578;51.622;7.046;2024-03-17T11:23:27;95.90;;;26.60;;
5117;SDS011;2578;51.622;7.046;2024-03-17T11:25:54;95.63;;;30.70;;
5117;SDS011;2578;51.622;7.046;2024-03-17T11:34:07;94.27;;;25.00;;
5117;SDS011;2578;51.622;7.046;2024-03-17T11:36:51;94.10;;;28.20;;
5117;SDS011;2578;51.622;7.046;2024-03-17T11:39:21;91.90;;;28.43;;
5117;SDS011;2578;51.622;7.046;2024-03-17T11:42:34;94.20;;;28.27;;
5117;SDS011;2578;51.622;7.046;2024-03-17T11:45:01;94.60;;;26.40;;
5117;SDS011;2578;51.622;7.046;2024-03-17T11:47:38;95.20;;;28.50;;
5117;SDS011;2578;51.622;7.046;2024-03-17T11:50:05;93.93;;;26.97;;
5117;SDS011;2578;51.622;7.046;2024-03-17T11:52:34;94.20;;;25.70;;
5117;SDS011;2578;51.622;7.046;2024-03-17T11:55:00;90.40;;;25.10;;
5117;SDS011;2578;51.622;7.046;2024-03-17T11:57:26;92.20;;;26.73;;
5117;SDS011;2578;51.622;7.046;2024-03-17T11:59:53;91.37;;;25.33;;
5117;SDS011;2578;51.622;7.046;2024-03-17T12:02:20;90.67;;;24.90;;
5117;SDS011;2578;51.622;7.046;2024-03-17T12:04:46;89.70;;;23.80;;
5117;SDS011;2578;51.622;7.046;2024-03-17T12:07:14;90.70;;;25.30;;
5117;SDS011;2578;51.622;7.046;2024-03-17T12:09:45;90.63;;;25.20;;
5117;SDS011;2578;51.622;7.046;2024-03-17T12:12:14;88.30;;;24.80;;
5117;SDS011;2578;51.622;7.046;2024-03-17T12:14:41;88.60;;;24.73;;
5117;SDS011;2578;51.622;7.046;2024-03-17T12:17:08;90.00;;;24.67;;
5117;SDS011;2578;51.622;7.046;2024-03-17T12:19:35;92.13;;;24.50;;
5117;SDS011;2578;51.622;7.046;2024-03-17T12:22:03;86.97;;;22.73;;
5117;SDS011;2578;51.622;7.046;2024-03-17T12:24:30;87.90;;;24.90;;
5117;SDS011;2578;51.622;7.046;2024-03-17T12:26:58;89.17;;;24.90;;
5117;SDS011;2578;51.622;7.046;2024-03-17T12:29:31;92.80;;;26.90;;
5117;SDS011;2578;51.622;7.046;2024-03-17T12:32:11;90.57;;;24.97;;
5117;SDS011;2578;51.622;7.046;2024-03-17T12:34:41;93.27;;;27.10;;
5117;SDS011;2578;51.622;7.046;2024-03-17T12:37:07;89.60;;;25.70;;
5117;SDS011;2578;51.622;7.046;2024-03-17T12:39:34;89.33;;;25.83;;
5117;SDS011;2578;51.622;7.046;2024-03-17T12:42:10;87.10;;;24.47;;
5117;SDS011;2578;51.622;7.046;2024-03-17T12:44:37;89.70;;;25.87;;
5117;SDS011;2578;51.622;7.046;2024-03-17T12:47:08;89.90;;;25.37;;
5117;SDS011;2578;51.622;7.046;2024-03-17T12:49:44;88.97;;;24.80;;
5117;SDS011;2578;51.622;7.046;2024-03-17T12:52:21;88.30;;;23.50;;
5117;SDS011;2578;51.622;7.046;2024-03-17T12:54:56;89.07;;;24.70;;
5117;SDS011;2578;51.622;7.046;2024-03-17T12:57:51;88.97;;;24.20;;
5117;SDS011;2578;51.622;7.046;2024-03-17T13:00:36;88.90;;;24.00;;
5117;SDS011;2578;51.622;7.046;2024-03-17T13:03:03;88.50;;;25.50;;
5117;SDS011;2578;51.622;7.046;2024-03-17T13:05:30;89.00;;;25.03;;
5117;SDS011;2578;51.622;7.046;2024-03-17T13:07:57;88.47;;;24.60;;
5117;SDS011;2578;51.622;7.046;2024-03-17T13:10:23;88.63;;;25.10;;
5117;SDS011;2578;51.622;7.046;2024-03-17T13:13:00;89.67;;;25.63;;
5117;SDS011;2578;51.622;7.046;2024-03-17T13:15:27;88.57;;;25.30;;
5117;SDS011;2578;51.622;7.046;2024-03-17T13:17:56;89.23;;;26.50;;
5117;SDS011;2578;51.622;7.046;2024-03-17T13:20:22;88.80;;;26.50;;
5117;SDS011;2578;51.622;7.046;2024-03-17T13:22:48;87.87;;;26.73;;
5117;SDS011;2578;51.622;7.046;2024-03-17T13:25:15;89.07;;;26.50;;
5117;SDS011;2578;51.622;7.046;2024-03-17T13:27:46;87.57;;;26.17;;
5117;SDS011;2578;51.622;7.046;2024-03-17T13:30:13;87.30;;;26.23;;
5117;SDS011;2578;51.622;7.046;2024-03-17T13:32:42;88.07;;;26.30;;
5117;SDS011;2578;51.622;7.046;2024-03-17T13:35:17;87.80;;;26.20;;
5117;SDS011;2578;51.622;7.046;2024-03-17T13:37:44;87.20;;;26.13;;
5117;SDS011;2578;51.622;7.046;2024-03-17T13:40:11;87.80;;;25.90;;
5117;SDS011;2578;51.622;7.046;2024-03-17T13:42:39;87.70;;;26.13;;
5117;SDS011;2578;51.622;7.046;2024-03-17T13:45:07;87.57;;;25.90;;
5117;SDS011;2578;51.622;7.046;2024-03-17T13:47:36;88.83;;;26.20;;
5117;SDS011;2578;51.622;7.046;2024-03-17T13:50:02;87.30;;;26.80;;
5117;SDS011;2578;51.622;7.046;2024-03-17T13:52:31;90.40;;;25.87;;
5117;SDS011;2578;51.622;7.046;2024-03-17T13:54:57;88.77;;;25.40;;
5117;SDS011;2578;51.622;7.046;2024-03-17T13:57:24;91.30;;;25.60;;
5117;SDS011;2578;51.622;7.046;2024-03-17T13:59:50;89.47;;;25.00;;
5117;SDS011;2578;51.622;7.046;2024-03-17T14:02:17;91.07;;;25.70;;
5117;SDS011;2578;51.622;7.046;2024-03-17T14:04:43;91.30;;;25.30;;
5117;SDS011;2578;51.622;7.046;2024-03-17T14:07:11;89.67;;;25.17;;
5117;SDS011;2578;51.622;7.046;2024-03-17T14:09:37;93.83;;;28.53;;
5117;SDS011;2578;51.622;7.046;2024-03-17T14:12:03;89.37;;;24.97;;
5117;SDS011;2578;51.622;7.046;2024-03-17T14:14:29;87.40;;;24.53;;
5117;SDS011;2578;51.622;7.046;2024-03-17T14:16:55;89.07;;;24.20;;
5117;SDS011;2578;51.622;7.046;2024-03-17T14:19:21;91.00;;;24.23;;
5117;SDS011;2578;51.622;7.046;2024-03-17T14:21:47;90.57;;;24.87;;
5117;SDS011;2578;51.622;7.046;2024-03-17T14:24:13;89.07;;;24.03;;
5117;SDS011;2578;51.622;7.046;2024-03-17T14:26:39;89.17;;;23.20;;
5117;SDS011;2578;51.622;7.046;2024-03-17T14:29:05;90.10;;;23.53;;
5117;SDS011;2578;51.622;7.046;2024-03-17T14:31:31;87.43;;;22.90;;
5117;SDS011;2578;51.622;7.046;2024-03-17T14:34:00;95.10;;;23.87;;
5117;SDS011;2578;51.622;7.046;2024-03-17T14:36:26;87.60;;;23.20;;
5117;SDS011;2578;51.622;7.046;2024-03-17T14:38:54;89.70;;;23.20;;
5117;SDS011;2578;51.622;7.046;2024-03-17T14:41:20;89.20;;;23.00;;
5117;SDS011;2578;51.622;7.046;2024-03-17T14:43:46;90.30;;;23.80;;
5117;SDS011;2578;51.622;7.046;2024-03-17T14:46:12;93.80;;;25.17;;
5117;SDS011;2578;51.622;7.046;2024-03-17T14:48:39;156.53;;;28.93;;
5117;SDS011;2578;51.622;7.046;2024-03-17T14:51:05;88.40;;;23.30;;
5117;SDS011;2578;51.622;7.046;2024-03-17T14:53:31;89.40;;;23.37;;
5117;SDS011;2578;51.622;7.046;2024-03-17T14:55:57;89.60;;;22.90;;
5117;SDS011;2578;51.622;7.046;2024-03-17T14:58:24;93.27;;;23.83;;
5117;SDS011;2578;51.622;7.046;2024-03-17T15:00:50;92.17;;;23.57;;
5117;SDS011;2578;51.622;7.046;2024-03-17T15:03:16;92.60;;;24.00;;
5117;SDS011;2578;51.622;7.046;2024-03-17T15:05:42;91.37;;;23.43;;
5117;SDS011;2578;51.622;7.046;2024-03-17T15:08:07;91.90;;;23.80;;
5117;SDS011;2578;51.622;7.046;2024-03-17T15:10:34;92.63;;;24.10;;